RJER(METAR)
12/16 15:00
RJER 160600Z 27010G21KT 1000 SN FEW005 BKN010 M03/M05 Q1004 RMK
A2966=
戻る
トップページへ戻る
IMOC Co,.Ltd.